Home > Products > Valid Products > TAF

000
FTUS44 KLUB 042320
TAFLBB
TAF
KLBB 042320Z 0500/0524 19010KT P6SM SKC=



000
FTUS44 KLUB 042320
TAFCDS
TAF
KCDS 042320Z 0500/0524 16007KT P6SM SKC=



000
FTUS44 KLUB 042320
TAFLBB
TAF
KLBB 042320Z 0500/0524 19010KT P6SM SKC=



000
FTUS44 KLUB 042320
TAFCDS
TAF
KCDS 042320Z 0500/0524 16007KT P6SM SKC=



000
FTUS44 KLUB 041720
TAFLBB
TAF
KLBB 041720Z 0418/0518 01008KT P6SM SKC
     FM050100 VRB06KT P6SM SKC=



000
FTUS44 KLUB 041720
TAFCDS
TAF
KCDS 041720Z 0418/0518 36012KT P6SM SKC
     FM050100 VRB06KT P6SM SKC=



000
FTUS44 KLUB 041120
TAFCDS
TAF
KCDS 041120Z 0412/0512 36008KT P6SM SKC=



000
FTUS44 KLUB 041120
TAFLBB
TAF
KLBB 041120Z 0412/0512 36010KT P6SM SKC=



000
FTUS44 KLUB 041120
TAFLBB
TAF
KLBB 041120Z 0412/0512 36010KT P6SM SKC=



000
FTUS44 KLUB 041120
TAFCDS
TAF
KCDS 041120Z 0412/0512 36008KT P6SM SKC=



000
FTUS44 KLUB 040520
TAFCDS
TAF
KCDS 040520Z 0406/0506 VRB06KT P6SM SKC
     FM041700 36010KT P6SM SKC=



000
FTUS44 KLUB 040520
TAFLBB
TAF
KLBB 040520Z 0406/0506 VRB06KT P6SM SKC
     FM041700 36010KT P6SM SKC=



000
FTUS44 KLUB 032322
TAFCDS
TAF
KCDS 032322Z 0400/0424 VRB06KT P6SM VCSH SCT070
     FM040100 30007KT P6SM SKC=



000
FTUS44 KLUB 032322
TAFLBB
TAF
KLBB 032322Z 0400/0424 VRB06KT P6SM FEW050 BKN100
     FM040100 35008KT P6SM SKC=



000
FTUS44 KLUB 032322
TAFLBB
TAF
KLBB 032322Z 0400/0424 VRB06KT P6SM FEW050 BKN100
     FM040100 35008KT P6SM SKC=



000
FTUS44 KLUB 032322
TAFCDS
TAF
KCDS 032322Z 0400/0424 VRB06KT P6SM VCSH SCT070
     FM040100 30007KT P6SM SKC=



000
FTUS44 KLUB 032303 AAB
TAFCDS
TAF AMD
KCDS 032303Z 0323/0418 VRB06KT P6SM VCSH SCT060 BKN100
      TEMPO 0323/0324 -TSRA BKN060CB
     FM040100 30007KT P6SM SKC=



000
FTUS44 KLUB 032201 AAE
TAFLBB
TAF AMD
KLBB 032201Z 0322/0418 05010KT P6SM VCTS SCT070CB BKN100
     FM040100 35008KT P6SM SKC=



000
FTUS44 KLUB 032102 AAD
TAFLBB
TAF AMD
KLBB 032102Z 0321/0418 04007KT P6SM VCTS SCT060CB BKN100
     FM032200 01012KT P6SM SCT100
     FM040100 35008KT P6SM SKC=



000
FTUS44 KLUB 032032 AAA
TAFCDS
TAF AMD
KCDS 032032Z 0321/0418 36010KT P6SM VCSH SCT060 BKN100
      TEMPO 0321/0323 -SHRA BKN060
     FM040100 30007KT P6SM SKC=



000
FTUS44 KLUB 032030 AAC
TAFLBB
TAF AMD
KLBB 032030Z 0321/0418 04007KT P6SM VCSH SCT060 BKN100
     FM032200 01012KT P6SM SCT100
     FM040100 35008KT P6SM SKC=



000
FTUS44 KLUB 031924 AAB
TAFLBB
TAF AMD
KLBB 031924Z 0319/0418 28012G21KT P6SM VCSH SCT060 BKN100
      TEMPO 0319/0320 -TSRA BKN060CB
     FM032200 35012KT P6SM SCT100
     FM040100 35008KT P6SM SKC=



000
FTUS44 KLUB 031906 AAA
TAFLBB
TAF AMD
KLBB 031906Z 0319/0418 33009KT P6SM VCSH SCT060 BKN100
     FM032200 35012KT P6SM SCT100
     FM040100 35008KT P6SM SKC=



000
FTUS44 KLUB 031906 AAA
TAFLBB
TAF AMD
KLBB 031906Z 0319/0418 33009KT P6SM VCSH SCT060 BKN100
     FM032200 35012KT P6SM SCT100
     FM040100 35008KT P6SM SKC=



000
FTUS44 KLUB 031730
TAFLBB
TAF
KLBB 031730Z 0318/0418 27010G18KT P6SM BKN100
     FM032000 33009KT P6SM SCT050 BKN100
     FM032200 35012KT P6SM SCT100
     FM040100 35008KT P6SM SKC=



000
FTUS44 KLUB 031730
TAFCDS
TAF
KCDS 031730Z 0318/0418 35010KT P6SM VCSH SCT060 BKN100
     FM032000 36010KT P6SM SCT100
     FM040000 30007KT P6SM SKC=



000
FTUS44 KLUB 031730
TAFLBB
TAF
KLBB 031730Z 0318/0418 27010G18KT P6SM BKN100
     FM032000 33009KT P6SM SCT050 BKN100
     FM032200 35012KT P6SM SCT100
     FM040100 35008KT P6SM SKC=



000
FTUS44 KLUB 031730
TAFCDS
TAF
KCDS 031730Z 0318/0418 35010KT P6SM VCSH SCT060 BKN100
     FM032000 36010KT P6SM SCT100
     FM040000 30007KT P6SM SKC=



000
FTUS44 KLUB 031524 AAA
TAFCDS
TAF AMD
KCDS 031524Z 0315/0412 21009KT P6SM SCT100
     FM031730 31009KT P6SM SCT050 BKN100
     FM040000 25006KT P6SM SKC=



000
FTUS44 KLUB 031446 AAA
TAFLBB
TAF AMD
KLBB 031446Z 0315/0412 23011KT P6SM SCT100
     FM031700 23011KT P6SM BKN100
     FM032100 30009KT P6SM SCT050 BKN100
     FM040100 VRB05KT P6SM SKC=



000
FTUS44 KLUB 031132
TAFCDS
TAF
KCDS 031132Z 0312/0412 21009KT P6SM SKC
     FM031800 31009KT P6SM SCT050 BKN100
     FM040000 25006KT P6SM SKC=



000
FTUS44 KLUB 031132
TAFLBB
TAF
KLBB 031132Z 0312/0412 23011KT P6SM SKC
     FM031900 30009KT P6SM SCT050 BKN100
     FM040100 VRB05KT P6SM SKC=



000
FTUS44 KLUB 030520
TAFCDS
TAF
KCDS 030520Z 0306/0406 VRB05KT P6SM SKC
     FM031700 23009KT P6SM FEW050 SCT250
     FM032100 34011KT P6SM SCT050 BKN120=



000
FTUS44 KLUB 030520
TAFCDS
TAF
KCDS 030520Z 0306/0406 VRB05KT P6SM SKC
     FM031700 23009KT P6SM FEW050 SCT250
     FM032100 34011KT P6SM SCT050 BKN120=



000
FTUS44 KLUB 030520
TAFLBB
TAF
KLBB 030520Z 0306/0406 07007KT P6SM SKC
     FM031500 26010KT P6SM SKC
     FM032300 32011KT P6SM SCT050 SCT120=



000
FTUS44 KLUB 030520
TAFLBB
TAF
KLBB 030520Z 0306/0406 07007KT P6SM SKC
     FM031500 26010KT P6SM SKC
     FM032300 32011KT P6SM SCT050 SCT120=



000
FTUS44 KLUB 022320
TAFCDS
TAF
KCDS 022320Z 0300/0324 VRB06KT P6SM SKC
     FM031700 21008KT P6SM SKC
     FM032100 34011KT P6SM SCT050 BKN120=



000
FTUS44 KLUB 022320
TAFLBB
TAF
KLBB 022320Z 0300/0324 VRB05KT P6SM SKC
     FM031500 25011KT P6SM SKC
     FM032200 31011KT P6SM SCT050 SCT120=



000
FTUS44 KLUB 021728
TAFCDS
TAF
KCDS 021728Z 0218/0318 03012G20KT P6SM FEW045
     FM030100 VRB06KT P6SM SKC=



000
FTUS44 KLUB 021728
TAFLBB
TAF
KLBB 021728Z 0218/0318 04011KT P6SM FEW050
     FM030100 VRB06KT P6SM SKC=



000
FTUS44 KLUB 021120
TAFCDS
TAF
KCDS 021120Z 0212/0312 33009KT P6SM SCT070=



000
FTUS44 KLUB 021120
TAFLBB
TAF
KLBB 021120Z 0212/0312 01010KT P6SM BKN140=



000
FTUS44 KLUB 021036 AAB
TAFLBB
TAF AMD
KLBB 021036Z 0211/0306 36013KT P6SM SCT060 BKN140
     FM021400 02009KT P6SM SCT250=



000
FTUS44 KLUB 021036 AAB
TAFLBB
TAF AMD
KLBB 021036Z 0211/0306 36013KT P6SM SCT060 BKN140
     FM021400 02009KT P6SM SCT250=



000
FTUS44 KLUB 020623 AAA
TAFLBB
TAF AMD
KLBB 020623Z 0206/0306 02013KT P6SM BKN021 OVC045
     FM021400 36009KT P6SM SCT015 SCT250=



000
FTUS44 KLUB 020623 AAA
TAFLBB
TAF AMD
KLBB 020623Z 0206/0306 02013KT P6SM BKN021 OVC045
     FM021400 36009KT P6SM SCT015 SCT250=



000
FTUS44 KLUB 020520
TAFLBB
TAF
KLBB 020520Z 0206/0306 02013KT P6SM FEW019 OVC045
     FM020700 02011KT P6SM BKN020
     FM021400 36009KT P6SM SCT015 SCT250=



000
FTUS44 KLUB 020520
TAFCDS
TAF
KCDS 020520Z 0206/0306 35011KT P6SM OVC070=



000
FTUS44 KLUB 020520
TAFLBB
TAF
KLBB 020520Z 0206/0306 02013KT P6SM FEW019 OVC045
     FM020700 02011KT P6SM BKN020
     FM021400 36009KT P6SM SCT015 SCT250=



000
FTUS44 KLUB 020520
TAFCDS
TAF
KCDS 020520Z 0206/0306 35011KT P6SM OVC070=



    US Dept of Commerce
    National Oceanic and Atmospheric Administration
    National Weather Service
    1325 East West Highway
    Silver Spring, MD 20910
    Page Author: NWS Internet Services Team
Disclaimer
Information Quality
Credits
Glossary
Privacy Policy
Freedom of Information Act (FOIA)
About Us
Career Opportunities